createdAt,value
2018-06-03T00:01:59.127Z,7.50
2018-06-03T00:04:26.614Z,7.90
2018-06-03T00:06:54.131Z,8.03
2018-06-03T00:09:21.614Z,8.67
2018-06-03T00:11:49.123Z,8.10
2018-06-03T00:14:16.610Z,8.13
2018-06-03T00:16:44.121Z,7.37
2018-06-03T00:19:11.602Z,7.13
2018-06-03T00:21:42.965Z,6.80
2018-06-03T00:24:10.455Z,6.80
2018-06-03T00:26:37.954Z,6.53
2018-06-03T00:29:05.451Z,6.63
2018-06-03T00:31:32.959Z,7.30
2018-06-03T00:34:00.452Z,8.67
2018-06-03T00:36:39.762Z,8.03
2018-06-03T00:39:07.267Z,9.73
2018-06-03T00:41:34.793Z,8.73
2018-06-03T00:44:02.282Z,9.00
2018-06-03T00:46:29.820Z,9.60
2018-06-03T00:48:57.329Z,9.00
2018-06-03T00:51:24.822Z,10.80
2018-06-03T00:53:52.326Z,10.43
2018-06-03T00:56:31.721Z,8.93
2018-06-03T00:58:59.230Z,9.27
2018-06-03T01:01:26.713Z,9.47
2018-06-03T01:03:54.214Z,9.53
2018-06-03T01:06:21.695Z,9.70
2018-06-03T01:08:49.198Z,8.80
2018-06-03T01:11:16.926Z,9.57
2018-06-03T01:13:44.432Z,9.13
2018-06-03T01:16:11.913Z,8.90
2018-06-03T01:18:39.415Z,8.97
2018-06-03T01:21:06.918Z,8.33
2018-06-03T01:23:34.418Z,9.73
2018-06-03T01:26:01.910Z,9.40
2018-06-03T01:28:29.426Z,10.23
2018-06-03T01:30:56.901Z,9.47
2018-06-03T01:33:24.413Z,8.03
2018-06-03T01:35:51.898Z,7.97
2018-06-03T01:38:19.399Z,7.37
2018-06-03T01:40:46.888Z,6.53
2018-06-03T01:43:14.395Z,7.07
2018-06-03T01:45:41.874Z,6.50
2018-06-03T01:48:09.393Z,7.43
2018-06-03T01:50:36.879Z,7.23
2018-06-03T01:53:04.395Z,6.87
2018-06-03T01:55:31.875Z,6.23
2018-06-03T01:57:59.367Z,7.03
2018-06-03T02:00:26.893Z,7.17
2018-06-03T02:02:54.382Z,7.37
2018-06-03T02:05:21.896Z,7.50
2018-06-03T02:07:49.402Z,7.13
2018-06-03T02:10:16.906Z,7.33
2018-06-03T02:12:46.361Z,7.43
2018-06-03T02:15:13.858Z,8.40
2018-06-03T02:17:41.346Z,8.87
2018-06-03T02:20:08.854Z,8.30
2018-06-03T02:22:36.338Z,8.03
2018-06-03T02:25:03.845Z,6.30
2018-06-03T02:27:31.336Z,6.23
2018-06-03T02:29:58.870Z,5.70
2018-06-03T02:32:26.358Z,5.83
2018-06-03T02:34:53.859Z,5.57
2018-06-03T02:37:21.360Z,7.03
2018-06-03T02:39:48.858Z,5.77
2018-06-03T02:42:16.355Z,6.47
2018-06-03T02:44:43.862Z,6.63
2018-06-03T02:47:11.347Z,6.93
2018-06-03T02:49:38.852Z,7.17
2018-06-03T02:52:06.338Z,8.33
2018-06-03T02:54:33.841Z,7.80
2018-06-03T02:57:01.318Z,7.20
2018-06-03T02:59:28.823Z,7.37
2018-06-03T03:01:56.299Z,6.43
2018-06-03T03:04:23.799Z,7.07
2018-06-03T03:06:51.282Z,7.50
2018-06-03T03:09:18.810Z,6.97
2018-06-03T03:11:46.294Z,7.83
2018-06-03T03:14:13.776Z,7.00
2018-06-03T03:16:41.282Z,4.93
2018-06-03T03:19:08.766Z,6.57
2018-06-03T03:21:36.282Z,6.55
2018-06-03T03:24:03.761Z,6.80
2018-06-03T03:26:31.271Z,6.57
2018-06-03T03:28:58.751Z,7.50
2018-06-03T03:31:26.262Z,6.70
2018-06-03T03:33:53.755Z,5.37
2018-06-03T03:36:21.254Z,5.60
2018-06-03T03:38:48.744Z,5.90
2018-06-03T03:41:16.250Z,7.07
2018-06-03T03:43:43.743Z,8.13
2018-06-03T03:46:11.259Z,8.20
2018-06-03T03:48:38.790Z,8.77
2018-06-03T03:51:06.290Z,8.13
2018-06-03T03:53:33.791Z,8.47
2018-06-03T03:56:01.311Z,8.47
2018-06-03T03:58:28.785Z,8.87
2018-06-03T04:00:56.295Z,10.37
2018-06-03T04:03:23.787Z,9.37
2018-06-03T04:05:51.286Z,8.27
2018-06-03T04:08:46.395Z,9.00
2018-06-03T04:11:13.673Z,8.87
2018-06-03T04:13:40.945Z,8.20
2018-06-03T04:16:08.213Z,6.93
2018-06-03T04:18:35.476Z,5.80
2018-06-03T04:21:02.760Z,6.73
2018-06-03T04:23:30.013Z,6.63
2018-06-03T04:25:57.277Z,6.70
2018-06-03T04:28:24.538Z,7.13
2018-06-03T04:30:52.031Z,8.23
2018-06-03T04:33:19.288Z,8.73
2018-06-03T04:35:46.564Z,8.77
2018-06-03T04:38:13.821Z,8.90
2018-06-03T04:40:41.174Z,8.43
2018-06-03T04:43:08.538Z,9.13
2018-06-03T04:45:35.809Z,8.97
2018-06-03T04:48:03.136Z,9.43
2018-06-03T04:50:30.384Z,9.30
2018-06-03T04:52:57.686Z,10.43
2018-06-03T04:55:24.952Z,8.70
2018-06-03T04:57:52.212Z,7.63
2018-06-03T05:00:19.472Z,8.07
2018-06-03T05:02:46.762Z,9.80
2018-06-03T05:05:14.041Z,9.93
2018-06-03T05:07:41.328Z,9.40
2018-06-03T05:10:08.596Z,9.53
2018-06-03T05:12:35.869Z,10.17
2018-06-03T05:15:03.142Z,9.60
2018-06-03T05:17:30.440Z,9.47
2018-06-03T05:19:57.704Z,10.33
2018-06-03T05:22:25.005Z,10.30
2018-06-03T05:24:52.279Z,9.80
2018-06-03T05:27:19.562Z,11.47
2018-06-03T05:29:46.825Z,10.67
2018-06-03T05:32:14.114Z,11.60
2018-06-03T05:34:41.406Z,11.73
2018-06-03T05:37:08.716Z,12.57
2018-06-03T05:39:36.000Z,12.93
2018-06-03T05:42:03.319Z,11.77
2018-06-03T05:44:30.603Z,11.70
2018-06-03T05:46:57.888Z,12.30
2018-06-03T05:49:25.152Z,12.23
2018-06-03T05:51:52.452Z,12.53
2018-06-03T05:54:19.748Z,12.97
2018-06-03T05:56:47.032Z,12.70
2018-06-03T05:59:14.329Z,14.17
2018-06-03T06:01:41.678Z,13.73
2018-06-03T06:04:08.986Z,13.00
2018-06-03T06:06:36.268Z,13.07
2018-06-03T06:09:05.604Z,13.37
2018-06-03T06:11:32.860Z,13.40
2018-06-03T06:14:00.153Z,13.50
2018-06-03T06:16:27.424Z,14.87
2018-06-03T06:18:54.721Z,14.07
2018-06-03T06:21:22.021Z,13.37
2018-06-03T06:23:49.320Z,13.67
2018-06-03T06:26:16.593Z,13.07
2018-06-03T06:28:43.872Z,14.73
2018-06-03T06:31:11.140Z,14.73
2018-06-03T06:33:38.684Z,15.20
2018-06-03T06:36:05.949Z,17.03
2018-06-03T06:38:33.241Z,16.50
2018-06-03T06:41:00.544Z,16.63
2018-06-03T06:43:27.846Z,17.50
2018-06-03T06:45:55.120Z,17.70
2018-06-03T06:48:22.417Z,17.93
2018-06-03T06:50:49.693Z,18.67
2018-06-03T06:53:16.989Z,20.70
2018-06-03T06:55:44.348Z,18.93
2018-06-03T06:58:11.637Z,19.63
2018-06-03T07:00:38.921Z,18.37
2018-06-03T07:03:06.240Z,21.23
2018-06-03T07:05:33.509Z,21.43
2018-06-03T07:08:00.798Z,21.83
2018-06-03T07:10:28.090Z,20.90
2018-06-03T07:12:55.384Z,23.13
2018-06-03T07:15:22.680Z,22.30
2018-06-03T07:17:49.951Z,28.97
2018-06-03T07:20:17.233Z,28.80
2018-06-03T07:22:44.777Z,30.67
2018-06-03T07:25:12.060Z,27.27
2018-06-03T07:27:39.348Z,27.10
2018-06-03T07:30:06.643Z,24.17
2018-06-03T07:32:33.976Z,25.33
2018-06-03T07:35:01.272Z,22.13
2018-06-03T07:37:28.568Z,21.33
2018-06-03T07:39:55.857Z,22.57
2018-06-03T07:42:23.153Z,21.67
2018-06-03T07:44:50.445Z,20.33
2018-06-03T07:47:17.760Z,20.53
2018-06-03T07:49:45.116Z,21.53
2018-06-03T07:52:12.388Z,16.77
2018-06-03T07:54:39.685Z,18.20
2018-06-03T07:57:06.975Z,17.67
2018-06-03T07:59:34.264Z,15.40
2018-06-03T08:02:01.545Z,12.90
2018-06-03T08:04:28.844Z,12.10
2018-06-03T08:06:56.121Z,10.87
2018-06-03T08:09:23.417Z,10.77
2018-06-03T08:11:50.713Z,12.63
2018-06-03T08:14:18.001Z,12.87
2018-06-03T08:16:45.282Z,13.23
2018-06-03T08:19:12.562Z,14.37
2018-06-03T08:21:39.848Z,15.63
2018-06-03T08:24:08.166Z,15.80
2018-06-03T08:26:35.473Z,13.43
2018-06-03T08:29:02.749Z,13.17
2018-06-03T08:31:30.065Z,12.97
2018-06-03T08:33:57.340Z,13.63
2018-06-03T08:36:24.664Z,13.37
2018-06-03T08:38:51.941Z,14.53
2018-06-03T08:41:19.284Z,13.40
2018-06-03T08:43:46.565Z,15.23
2018-06-03T08:46:13.857Z,17.77
2018-06-03T08:48:41.137Z,15.97
2018-06-03T08:51:08.473Z,16.50
2018-06-03T08:53:35.744Z,16.07
2018-06-03T08:56:03.033Z,16.87
2018-06-03T08:58:30.318Z,16.90
2018-06-03T09:00:57.617Z,17.00
2018-06-03T09:03:24.908Z,16.37
2018-06-03T09:05:52.201Z,17.73
2018-06-03T09:08:25.041Z,16.57
2018-06-03T09:10:52.369Z,16.73
2018-06-03T09:13:19.651Z,16.00
2018-06-03T09:15:46.975Z,15.13
2018-06-03T09:18:14.276Z,15.30
2018-06-03T09:20:41.564Z,15.60
2018-06-03T09:23:08.836Z,15.17
2018-06-03T09:25:36.144Z,15.77
2018-06-03T09:28:03.438Z,15.43
2018-06-03T09:30:30.838Z,15.37
2018-06-03T09:32:58.117Z,15.27
2018-06-03T09:35:25.404Z,15.20
2018-06-03T09:37:52.692Z,15.63
2018-06-03T09:40:19.952Z,16.87
2018-06-03T09:42:47.269Z,15.43
2018-06-03T09:45:14.568Z,14.73
2018-06-03T09:47:41.857Z,14.40
2018-06-03T09:50:09.135Z,13.23
2018-06-03T09:52:36.426Z,14.17
2018-06-03T09:55:03.745Z,13.53
2018-06-03T09:57:31.045Z,13.13
2018-06-03T09:59:58.356Z,13.87
2018-06-03T10:02:25.652Z,13.57
2018-06-03T10:04:52.921Z,12.43
2018-06-03T10:07:20.229Z,12.17
2018-06-03T10:09:47.562Z,12.30
2018-06-03T10:12:14.873Z,11.60
2018-06-03T10:14:42.148Z,13.47
2018-06-03T10:17:09.431Z,12.17
2018-06-03T10:19:36.714Z,12.43
2018-06-03T10:22:04.017Z,12.70
2018-06-03T10:24:31.272Z,11.60
2018-06-03T10:26:58.635Z,12.23
2018-06-03T10:29:25.914Z,12.50
2018-06-03T10:31:53.327Z,11.67
2018-06-03T10:34:20.593Z,12.50
2018-06-03T10:36:47.892Z,12.07
2018-06-03T10:39:15.171Z,12.47
2018-06-03T10:41:42.509Z,12.10
2018-06-03T10:44:09.799Z,12.90
2018-06-03T10:46:37.064Z,12.83
2018-06-03T10:49:04.376Z,13.10
2018-06-03T10:51:31.661Z,12.80
2018-06-03T10:53:58.964Z,13.27
2018-06-03T10:56:26.236Z,12.60
2018-06-03T10:58:53.537Z,12.13
2018-06-03T11:01:20.825Z,12.57
2018-06-03T11:03:54.873Z,13.20
2018-06-03T11:06:22.160Z,12.90
2018-06-03T11:08:49.461Z,12.87
2018-06-03T11:11:16.791Z,11.43
2018-06-03T11:13:44.079Z,11.50
2018-06-03T11:16:11.365Z,12.43
2018-06-03T11:18:38.645Z,11.67
2018-06-03T11:21:05.942Z,11.27
2018-06-03T11:23:33.229Z,12.00
2018-06-03T11:26:00.489Z,12.50
2018-06-03T11:28:27.858Z,12.10
2018-06-03T11:30:55.127Z,11.33
2018-06-03T11:33:22.401Z,10.50
2018-06-03T11:35:49.663Z,11.07
2018-06-03T11:38:16.973Z,11.47
2018-06-03T11:40:44.233Z,10.63
2018-06-03T11:43:11.569Z,10.40
2018-06-03T11:45:38.844Z,11.37
2018-06-03T11:48:06.161Z,11.93
2018-06-03T11:50:33.577Z,9.90
2018-06-03T11:53:00.897Z,10.57
2018-06-03T11:55:28.174Z,10.17
2018-06-03T11:58:00.772Z,11.60
2018-06-03T12:00:28.195Z,13.00
2018-06-03T12:02:55.557Z,11.90
2018-06-03T12:05:23.014Z,12.30
2018-06-03T12:07:50.434Z,13.20
2018-06-03T12:10:17.813Z,11.30
2018-06-03T12:12:45.241Z,11.87
2018-06-03T12:15:12.687Z,11.20
2018-06-03T12:17:40.033Z,10.40
2018-06-03T12:20:07.455Z,11.83
2018-06-03T12:22:34.789Z,12.03
2018-06-03T12:25:02.178Z,11.63
2018-06-03T12:27:29.632Z,12.27
2018-06-03T12:29:57.080Z,12.07
2018-06-03T12:32:24.420Z,10.83
2018-06-03T12:34:51.757Z,11.60
2018-06-03T12:37:19.024Z,11.90
2018-06-03T12:39:46.356Z,11.67
2018-06-03T12:42:13.660Z,11.13
2018-06-03T12:44:40.960Z,13.30
2018-06-03T12:47:08.245Z,13.23
2018-06-03T12:49:35.544Z,14.07
2018-06-03T12:52:02.828Z,12.33
2018-06-03T12:54:30.115Z,12.53
2018-06-03T12:56:57.429Z,11.00
2018-06-03T12:59:24.699Z,11.70
2018-06-03T13:01:52.001Z,13.07
2018-06-03T13:04:19.308Z,12.47
2018-06-03T13:06:46.591Z,12.10
2018-06-03T13:12:06.770Z,13.33
2018-06-03T13:14:34.054Z,14.10
2018-06-03T13:17:02.397Z,13.70
2018-06-03T13:19:29.669Z,12.60
2018-06-03T13:21:56.974Z,12.33
2018-06-03T13:24:24.248Z,12.60
2018-06-03T13:26:51.616Z,14.00
2018-06-03T13:29:18.889Z,12.47
2018-06-03T13:31:46.189Z,13.38
2018-06-03T13:34:14.068Z,13.53
2018-06-03T13:36:41.372Z,12.07
2018-06-03T13:39:08.662Z,13.65
2018-06-03T13:41:35.981Z,13.43
2018-06-03T13:44:03.318Z,13.32
2018-06-03T13:46:30.621Z,12.35
2018-06-03T13:48:57.908Z,12.60
2018-06-03T13:51:25.225Z,12.68
2018-06-03T13:53:52.513Z,13.15
2018-06-03T13:56:20.928Z,11.55
2018-06-03T13:58:48.321Z,11.22
2018-06-03T14:01:15.720Z,12.23
2018-06-03T14:03:43.173Z,11.85
2018-06-03T14:08:59.589Z,11.43
2018-06-03T14:11:26.885Z,12.60
2018-06-03T14:13:54.550Z,13.72
2018-06-03T14:16:21.860Z,14.45
2018-06-03T14:18:49.437Z,15.83
2018-06-03T14:21:16.737Z,15.15
2018-06-03T14:23:44.021Z,14.63
2018-06-03T14:26:11.351Z,14.78
2018-06-03T14:28:38.633Z,15.95
2018-06-03T14:31:06.010Z,15.40
2018-06-03T14:33:33.332Z,14.47
2018-06-03T14:36:00.597Z,14.18
2018-06-03T14:38:27.881Z,13.62
2018-06-03T14:40:55.156Z,13.08
2018-06-03T14:43:22.480Z,13.95
2018-06-03T14:45:49.759Z,14.43
2018-06-03T14:48:17.070Z,14.18
2018-06-03T14:50:44.379Z,15.10
2018-06-03T14:53:11.640Z,14.45
2018-06-03T14:55:38.892Z,14.55
2018-06-03T14:58:06.801Z,14.60
2018-06-03T15:00:34.266Z,14.07
2018-06-03T15:03:01.723Z,14.43
2018-06-03T15:08:14.770Z,14.43
2018-06-03T15:10:42.111Z,13.10
2018-06-03T15:13:09.491Z,15.28
2018-06-03T15:15:36.849Z,13.22
2018-06-03T15:18:04.327Z,12.80
2018-06-03T15:20:31.729Z,13.08
2018-06-03T15:22:59.115Z,13.55
2018-06-03T15:25:26.541Z,14.95
2018-06-03T15:27:53.949Z,26.25
2018-06-03T15:30:21.330Z,15.88
2018-06-03T15:32:48.811Z,14.65
2018-06-03T15:35:16.349Z,13.80
2018-06-03T15:37:43.862Z,14.45
2018-06-03T15:40:11.418Z,15.03
2018-06-03T15:42:38.846Z,16.20
2018-06-03T15:45:06.250Z,14.23
2018-06-03T15:47:33.670Z,14.07
2018-06-03T15:50:01.053Z,14.95
2018-06-03T15:52:28.420Z,15.55
2018-06-03T15:54:55.892Z,16.73
2018-06-03T15:57:23.245Z,20.10
2018-06-03T15:59:50.585Z,31.12
2018-06-03T16:02:17.870Z,23.98
2018-06-03T16:04:45.169Z,17.65
2018-06-03T16:07:12.538Z,17.75
2018-06-03T16:09:39.790Z,35.80
2018-06-03T16:12:07.509Z,22.60
2018-06-03T16:14:34.863Z,19.60
2018-06-03T16:17:02.420Z,17.32
2018-06-03T16:19:29.852Z,20.62
2018-06-03T16:21:57.226Z,18.12
2018-06-03T16:24:24.758Z,19.95
2018-06-03T16:26:52.508Z,19.70
2018-06-03T16:29:26.616Z,19.10
2018-06-03T16:31:54.153Z,22.52
2018-06-03T16:34:21.634Z,19.73
2018-06-03T16:36:49.109Z,17.60
2018-06-03T16:39:16.494Z,15.83
2018-06-03T16:41:43.958Z,16.20
2018-06-03T16:44:11.516Z,15.87
2018-06-03T16:46:38.946Z,16.97
2018-06-03T16:49:06.440Z,16.03
2018-06-03T16:51:34.069Z,18.53
2018-06-03T16:54:01.483Z,16.93
2018-06-03T16:56:28.918Z,16.00
2018-06-03T16:58:56.473Z,16.30
2018-06-03T17:01:23.998Z,16.23
2018-06-03T17:03:51.430Z,17.80
2018-06-03T17:06:18.868Z,18.67
2018-06-03T17:08:46.182Z,19.33
2018-06-03T17:11:13.456Z,17.63
2018-06-03T17:13:40.713Z,18.37
2018-06-03T17:16:08.382Z,19.20
2018-06-03T17:18:35.660Z,19.20
2018-06-03T17:21:02.966Z,18.10
2018-06-03T17:23:31.010Z,19.13
2018-06-03T17:25:58.898Z,18.43
2018-06-03T17:28:26.190Z,17.70
2018-06-03T17:30:53.467Z,16.60
2018-06-03T17:33:20.785Z,18.03
2018-06-03T17:35:48.072Z,18.90
2018-06-03T17:38:15.746Z,18.53
2018-06-03T17:40:43.039Z,18.13
2018-06-03T17:43:10.326Z,19.47
2018-06-03T17:45:37.621Z,18.67
2018-06-03T17:48:04.974Z,20.37
2018-06-03T17:50:33.027Z,19.33
2018-06-03T17:53:00.291Z,18.67
2018-06-03T17:55:27.583Z,19.33
2018-06-03T17:57:54.949Z,19.70
2018-06-03T18:00:22.228Z,20.93
2018-06-03T18:02:49.500Z,20.83
2018-06-03T18:05:16.794Z,21.93
2018-06-03T18:07:44.095Z,19.93
2018-06-03T18:10:11.537Z,19.17
2018-06-03T18:12:38.812Z,17.20
2018-06-03T18:15:06.099Z,17.20
2018-06-03T18:17:33.365Z,16.37
2018-06-03T18:20:00.663Z,15.83
2018-06-03T18:22:28.343Z,16.73
2018-06-03T18:24:55.621Z,15.73
2018-06-03T18:27:22.920Z,15.40
2018-06-03T18:29:50.185Z,14.73
2018-06-03T18:32:17.468Z,14.83
2018-06-03T18:34:44.749Z,16.33
2018-06-03T18:37:12.040Z,19.27
2018-06-03T18:39:39.320Z,18.30
2018-06-03T18:42:06.627Z,20.43
2018-06-03T18:44:33.904Z,21.53
2018-06-03T18:47:01.201Z,21.83
2018-06-03T18:49:28.457Z,19.57
2018-06-03T18:51:55.757Z,19.17
2018-06-03T18:54:23.104Z,19.87
2018-06-03T18:56:50.446Z,19.13
2018-06-03T18:59:17.760Z,21.07
2018-06-03T19:01:45.049Z,20.50
2018-06-03T19:04:12.345Z,20.93
2018-06-03T19:06:40.075Z,20.13
2018-06-03T19:09:07.377Z,20.53
2018-06-03T19:11:34.682Z,20.50
2018-06-03T19:14:01.997Z,21.87
2018-06-03T19:16:29.389Z,21.60
2018-06-03T19:18:56.738Z,21.70
2018-06-03T19:21:24.060Z,21.97
2018-06-03T19:23:51.351Z,22.07
2018-06-03T19:26:18.657Z,22.73
2018-06-03T19:28:45.937Z,24.13
2018-06-03T19:31:13.246Z,22.97
2018-06-03T19:33:40.521Z,24.13
2018-06-03T19:36:07.791Z,25.20
2018-06-03T19:38:35.086Z,24.03
2018-06-03T19:41:02.389Z,23.83
2018-06-03T19:43:29.705Z,23.43
2018-06-03T19:45:56.989Z,24.13
2018-06-03T19:48:24.344Z,23.43
2018-06-03T19:50:51.649Z,23.07
2018-06-03T19:53:18.949Z,23.13
2018-06-03T19:55:46.244Z,22.20
2018-06-03T19:58:13.568Z,22.57
2018-06-03T20:00:40.845Z,22.67
2018-06-03T20:03:08.134Z,21.17
2018-06-03T20:05:35.417Z,22.10
2018-06-03T20:08:02.705Z,22.30
2018-06-03T20:10:29.995Z,22.70
2018-06-03T20:12:57.309Z,26.17
2018-06-03T20:15:24.580Z,27.93
2018-06-03T20:17:54.220Z,29.87
2018-06-03T20:20:21.684Z,29.50
2018-06-03T20:22:48.993Z,29.70
2018-06-03T20:25:16.279Z,29.73
2018-06-03T20:27:46.929Z,30.30
2018-06-03T20:30:14.365Z,30.33
2018-06-03T20:32:41.681Z,31.13
2018-06-03T20:35:08.950Z,31.13
2018-06-03T20:37:36.256Z,28.67
2018-06-03T20:40:03.556Z,30.17
2018-06-03T20:42:30.881Z,30.63
2018-06-03T20:44:58.161Z,31.57
2018-06-03T20:47:25.473Z,29.97
2018-06-03T20:49:52.804Z,31.80
2018-06-03T20:52:20.145Z,31.30
2018-06-03T20:54:47.504Z,30.03
2018-06-03T20:57:14.771Z,31.07
2018-06-03T20:59:42.072Z,26.70
2018-06-03T21:02:09.346Z,28.37
2018-06-03T21:04:36.636Z,25.80
2018-06-03T21:07:03.920Z,27.17
2018-06-03T21:09:31.231Z,26.93
2018-06-03T21:11:58.513Z,28.77
2018-06-03T21:14:25.813Z,30.60
2018-06-03T21:16:53.100Z,29.27
2018-06-03T21:19:20.392Z,30.13
2018-06-03T21:21:47.682Z,30.63
2018-06-03T21:24:15.150Z,30.90
2018-06-03T21:26:42.439Z,30.73
2018-06-03T21:29:10.503Z,33.10
2018-06-03T21:31:37.828Z,33.63
2018-06-03T21:34:05.202Z,33.37
2018-06-03T21:36:32.574Z,32.63
2018-06-03T21:38:59.913Z,33.70
2018-06-03T21:41:27.688Z,31.83
2018-06-03T21:43:54.990Z,33.80
2018-06-03T21:46:22.369Z,32.13
2018-06-03T21:48:49.740Z,34.50
2018-06-03T21:51:17.918Z,34.30
2018-06-03T21:53:45.624Z,35.20
2018-06-03T21:56:13.553Z,33.40
2018-06-03T21:58:42.564Z,32.17
2018-06-03T22:01:10.000Z,33.83
2018-06-03T22:03:37.713Z,33.93
2018-06-03T22:06:06.017Z,36.07
2018-06-03T22:08:33.953Z,30.40
2018-06-03T22:11:01.681Z,31.17
2018-06-03T22:13:29.060Z,29.90
2018-06-03T22:15:57.160Z,28.00
2018-06-03T22:18:24.779Z,29.50
2018-06-03T22:20:54.030Z,29.70
2018-06-03T22:23:21.728Z,28.93
2018-06-03T22:25:49.584Z,29.80
2018-06-03T22:28:17.864Z,31.17
2018-06-03T22:30:45.652Z,28.87
2018-06-03T22:33:12.912Z,25.33
2018-06-03T22:35:40.417Z,25.70
2018-06-03T22:38:07.786Z,26.80
2018-06-03T22:40:35.166Z,29.60
2018-06-03T22:43:03.415Z,32.33
2018-06-03T22:45:31.513Z,32.17
2018-06-03T22:48:00.252Z,30.30
2018-06-03T22:50:28.362Z,30.17
2018-06-03T22:52:56.442Z,31.40
2018-06-03T22:55:23.731Z,31.53
2018-06-03T22:57:52.536Z,29.97
2018-06-03T23:00:29.469Z,27.80
2018-06-03T23:03:02.613Z,29.50
2018-06-03T23:05:30.504Z,33.27
2018-06-03T23:07:59.093Z,32.60
2018-06-03T23:10:26.594Z,31.70
2018-06-03T23:12:54.894Z,31.87
2018-06-03T23:15:22.571Z,32.43
2018-06-03T23:17:49.860Z,34.07
2018-06-03T23:20:17.508Z,31.87
2018-06-03T23:22:45.470Z,24.87
2018-06-03T23:25:13.390Z,26.70
2018-06-03T23:27:41.152Z,25.70
2018-06-03T23:30:10.168Z,27.20
2018-06-03T23:32:39.069Z,23.93
2018-06-03T23:35:06.877Z,24.80
2018-06-03T23:37:35.066Z,23.10
2018-06-03T23:40:02.933Z,21.00
2018-06-03T23:42:32.288Z,23.00
2018-06-03T23:44:59.941Z,29.93
2018-06-03T23:47:28.288Z,37.53
2018-06-03T23:49:55.656Z,27.40
2018-06-03T23:52:24.313Z,25.57
2018-06-03T23:54:51.770Z,24.37
2018-06-03T23:57:20.172Z,30.47
2018-06-03T23:59:47.904Z,35.40
